sensor_id;sensor_type;location;lat;lon;timestamp;P1;durP1;ratioP1;P2;durP2;ratioP2
26588;SDS011;14235;48.532;8.722;2024-03-22T00:00:16;7.82;;;5.28;;
26588;SDS011;14235;48.532;8.722;2024-03-22T00:02:42;7.70;;;5.22;;
26588;SDS011;14235;48.532;8.722;2024-03-22T00:05:08;5.55;;;4.95;;
26588;SDS011;14235;48.532;8.722;2024-03-22T00:07:34;5.50;;;5.00;;
26588;SDS011;14235;48.532;8.722;2024-03-22T00:10:01;5.38;;;4.82;;
26588;SDS011;14235;48.532;8.722;2024-03-22T00:12:27;5.25;;;4.75;;
26588;SDS011;14235;48.532;8.722;2024-03-22T00:14:53;5.15;;;4.60;;
26588;SDS011;14235;48.532;8.722;2024-03-22T00:17:19;5.68;;;5.18;;
26588;SDS011;14235;48.532;8.722;2024-03-22T00:19:45;5.43;;;4.90;;
26588;SDS011;14235;48.532;8.722;2024-03-22T00:22:11;5.55;;;4.78;;
26588;SDS011;14235;48.532;8.722;2024-03-22T00:24:37;6.40;;;4.70;;
26588;SDS011;14235;48.532;8.722;2024-03-22T00:27:03;6.78;;;5.15;;
26588;SDS011;14235;48.532;8.722;2024-03-22T00:29:29;5.07;;;4.68;;
26588;SDS011;14235;48.532;8.722;2024-03-22T00:31:55;5.22;;;4.82;;
26588;SDS011;14235;48.532;8.722;2024-03-22T00:34:21;5.28;;;4.72;;
26588;SDS011;14235;48.532;8.722;2024-03-22T00:36:47;6.70;;;5.07;;
26588;SDS011;14235;48.532;8.722;2024-03-22T00:39:13;5.78;;;4.80;;
26588;SDS011;14235;48.532;8.722;2024-03-22T00:41:39;5.28;;;4.78;;
26588;SDS011;14235;48.532;8.722;2024-03-22T00:44:05;5.28;;;4.45;;
26588;SDS011;14235;48.532;8.722;2024-03-22T00:46:31;5.00;;;4.63;;
26588;SDS011;14235;48.532;8.722;2024-03-22T00:48:57;5.88;;;4.65;;
26588;SDS011;14235;48.532;8.722;2024-03-22T00:51:23;5.63;;;4.97;;
26588;SDS011;14235;48.532;8.722;2024-03-22T00:53:49;11.52;;;5.30;;
26588;SDS011;14235;48.532;8.722;2024-03-22T00:56:15;5.90;;;5.40;;
26588;SDS011;14235;48.532;8.722;2024-03-22T00:58:41;5.65;;;5.13;;
26588;SDS011;14235;48.532;8.722;2024-03-22T01:01:07;5.72;;;5.22;;
26588;SDS011;14235;48.532;8.722;2024-03-22T01:03:33;5.85;;;5.22;;
26588;SDS011;14235;48.532;8.722;2024-03-22T01:05:59;5.65;;;5.15;;
26588;SDS011;14235;48.532;8.722;2024-03-22T01:08:25;5.32;;;4.82;;
26588;SDS011;14235;48.532;8.722;2024-03-22T01:10:51;7.43;;;5.28;;
26588;SDS011;14235;48.532;8.722;2024-03-22T01:13:17;5.72;;;5.07;;
26588;SDS011;14235;48.532;8.722;2024-03-22T01:15:43;5.15;;;4.75;;
26588;SDS011;14235;48.532;8.722;2024-03-22T01:18:10;5.15;;;4.70;;
26588;SDS011;14235;48.532;8.722;2024-03-22T01:20:36;5.20;;;4.68;;
26588;SDS011;14235;48.532;8.722;2024-03-22T01:23:02;6.03;;;4.93;;
26588;SDS011;14235;48.532;8.722;2024-03-22T01:25:29;8.23;;;5.20;;
26588;SDS011;14235;48.532;8.722;2024-03-22T01:27:55;5.70;;;5.03;;
26588;SDS011;14235;48.532;8.722;2024-03-22T01:30:22;5.97;;;4.82;;
26588;SDS011;14235;48.532;8.722;2024-03-22T01:32:48;5.30;;;4.80;;
26588;SDS011;14235;48.532;8.722;2024-03-22T01:35:14;6.28;;;4.97;;
26588;SDS011;14235;48.532;8.722;2024-03-22T01:37:40;5.47;;;4.80;;
26588;SDS011;14235;48.532;8.722;2024-03-22T01:40:07;6.95;;;5.72;;
26588;SDS011;14235;48.532;8.722;2024-03-22T01:42:33;5.30;;;4.80;;
26588;SDS011;14235;48.532;8.722;2024-03-22T01:44:59;5.20;;;4.72;;
26588;SDS011;14235;48.532;8.722;2024-03-22T01:47:25;6.40;;;5.38;;
26588;SDS011;14235;48.532;8.722;2024-03-22T01:49:53;5.15;;;4.55;;
26588;SDS011;14235;48.532;8.722;2024-03-22T01:52:19;5.75;;;4.53;;
26588;SDS011;14235;48.532;8.722;2024-03-22T01:54:45;6.72;;;4.40;;
26588;SDS011;14235;48.532;8.722;2024-03-22T01:57:11;6.03;;;4.53;;
26588;SDS011;14235;48.532;8.722;2024-03-22T01:59:37;4.60;;;4.20;;
26588;SDS011;14235;48.532;8.722;2024-03-22T02:02:04;6.13;;;4.82;;
26588;SDS011;14235;48.532;8.722;2024-03-22T02:04:31;5.32;;;4.93;;
26588;SDS011;14235;48.532;8.722;2024-03-22T02:06:57;6.75;;;5.20;;
26588;SDS011;14235;48.532;8.722;2024-03-22T02:09:23;5.20;;;4.70;;
26588;SDS011;14235;48.532;8.722;2024-03-22T02:11:49;5.70;;;5.05;;
26588;SDS011;14235;48.532;8.722;2024-03-22T02:14:15;7.05;;;5.05;;
26588;SDS011;14235;48.532;8.722;2024-03-22T02:16:41;5.60;;;4.60;;
26588;SDS011;14235;48.532;8.722;2024-03-22T02:19:08;5.38;;;4.85;;
26588;SDS011;14235;48.532;8.722;2024-03-22T02:21:34;5.45;;;4.57;;
26588;SDS011;14235;48.532;8.722;2024-03-22T02:24:00;5.68;;;5.18;;
26588;SDS011;14235;48.532;8.722;2024-03-22T02:26:26;5.05;;;4.65;;
26588;SDS011;14235;48.532;8.722;2024-03-22T02:28:52;5.45;;;4.80;;
26588;SDS011;14235;48.532;8.722;2024-03-22T02:31:18;7.22;;;4.85;;
26588;SDS011;14235;48.532;8.722;2024-03-22T02:33:45;5.80;;;5.30;;
26588;SDS011;14235;48.532;8.722;2024-03-22T02:36:11;6.63;;;4.78;;
26588;SDS011;14235;48.532;8.722;2024-03-22T02:38:37;5.65;;;4.95;;
26588;SDS011;14235;48.532;8.722;2024-03-22T02:41:03;5.15;;;4.65;;
26588;SDS011;14235;48.532;8.722;2024-03-22T02:43:29;4.53;;;4.13;;
26588;SDS011;14235;48.532;8.722;2024-03-22T02:45:55;5.90;;;4.57;;
26588;SDS011;14235;48.532;8.722;2024-03-22T02:48:21;6.85;;;4.65;;
26588;SDS011;14235;48.532;8.722;2024-03-22T02:50:46;5.60;;;4.90;;
26588;SDS011;14235;48.532;8.722;2024-03-22T02:53:12;7.25;;;4.88;;
26588;SDS011;14235;48.532;8.722;2024-03-22T02:55:39;7.82;;;5.03;;
26588;SDS011;14235;48.532;8.722;2024-03-22T02:58:06;5.88;;;4.47;;
26588;SDS011;14235;48.532;8.722;2024-03-22T03:00:35;5.07;;;4.68;;
26588;SDS011;14235;48.532;8.722;2024-03-22T03:03:01;5.65;;;5.07;;
26588;SDS011;14235;48.532;8.722;2024-03-22T03:05:27;6.05;;;4.85;;
26588;SDS011;14235;48.532;8.722;2024-03-22T03:07:53;4.85;;;4.43;;
26588;SDS011;14235;48.532;8.722;2024-03-22T03:10:20;6.15;;;5.28;;
26588;SDS011;14235;48.532;8.722;2024-03-22T03:12:46;5.68;;;4.75;;
26588;SDS011;14235;48.532;8.722;2024-03-22T03:15:11;5.95;;;4.63;;
26588;SDS011;14235;48.532;8.722;2024-03-22T03:17:37;7.18;;;5.00;;
26588;SDS011;14235;48.532;8.722;2024-03-22T03:20:04;5.20;;;4.68;;
26588;SDS011;14235;48.532;8.722;2024-03-22T03:22:35;4.88;;;4.47;;
26588;SDS011;14235;48.532;8.722;2024-03-22T03:25:01;7.15;;;4.97;;
26588;SDS011;14235;48.532;8.722;2024-03-22T03:27:29;4.88;;;4.47;;
26588;SDS011;14235;48.532;8.722;2024-03-22T03:29:55;5.10;;;4.70;;
26588;SDS011;14235;48.532;8.722;2024-03-22T03:32:20;7.80;;;4.85;;
26588;SDS011;14235;48.532;8.722;2024-03-22T03:34:46;5.57;;;4.60;;
26588;SDS011;14235;48.532;8.722;2024-03-22T03:37:13;7.80;;;4.95;;
26588;SDS011;14235;48.532;8.722;2024-03-22T03:39:40;5.72;;;5.10;;
26588;SDS011;14235;48.532;8.722;2024-03-22T03:42:06;6.03;;;5.10;;
26588;SDS011;14235;48.532;8.722;2024-03-22T03:44:32;5.70;;;5.07;;
26588;SDS011;14235;48.532;8.722;2024-03-22T03:46:59;5.97;;;5.32;;
26588;SDS011;14235;48.532;8.722;2024-03-22T03:49:25;6.35;;;5.15;;
26588;SDS011;14235;48.532;8.722;2024-03-22T03:51:51;5.80;;;5.07;;
26588;SDS011;14235;48.532;8.722;2024-03-22T03:54:17;6.88;;;4.78;;
26588;SDS011;14235;48.532;8.722;2024-03-22T03:56:43;7.82;;;4.78;;
26588;SDS011;14235;48.532;8.722;2024-03-22T03:59:09;7.15;;;5.13;;
26588;SDS011;14235;48.532;8.722;2024-03-22T04:01:35;5.25;;;4.85;;
26588;SDS011;14235;48.532;8.722;2024-03-22T04:04:02;5.85;;;5.30;;
26588;SDS011;14235;48.532;8.722;2024-03-22T04:06:28;5.72;;;5.13;;
26588;SDS011;14235;48.532;8.722;2024-03-22T04:08:54;6.30;;;5.32;;
26588;SDS011;14235;48.532;8.722;2024-03-22T04:11:20;5.32;;;4.80;;
26588;SDS011;14235;48.532;8.722;2024-03-22T04:13:46;6.60;;;5.20;;
26588;SDS011;14235;48.532;8.722;2024-03-22T04:16:12;4.85;;;4.45;;
26588;SDS011;14235;48.532;8.722;2024-03-22T04:18:39;5.35;;;4.85;;
26588;SDS011;14235;48.532;8.722;2024-03-22T04:21:05;5.22;;;4.82;;
26588;SDS011;14235;48.532;8.722;2024-03-22T04:23:31;5.80;;;4.88;;
26588;SDS011;14235;48.532;8.722;2024-03-22T04:25:58;7.68;;;5.22;;
26588;SDS011;14235;48.532;8.722;2024-03-22T04:28:24;6.50;;;5.10;;
26588;SDS011;14235;48.532;8.722;2024-03-22T04:31:08;6.65;;;5.53;;
26588;SDS011;14235;48.532;8.722;2024-03-22T04:33:35;4.85;;;4.45;;
26588;SDS011;14235;48.532;8.722;2024-03-22T04:36:02;4.97;;;4.47;;
26588;SDS011;14235;48.532;8.722;2024-03-22T04:38:28;5.00;;;4.30;;
26588;SDS011;14235;48.532;8.722;2024-03-22T04:40:54;4.40;;;4.03;;
26588;SDS011;14235;48.532;8.722;2024-03-22T04:43:21;4.50;;;4.10;;
26588;SDS011;14235;48.532;8.722;2024-03-22T04:45:47;4.50;;;4.10;;
26588;SDS011;14235;48.532;8.722;2024-03-22T04:48:14;6.20;;;4.13;;
26588;SDS011;14235;48.532;8.722;2024-03-22T04:50:40;4.45;;;4.00;;
26588;SDS011;14235;48.532;8.722;2024-03-22T04:53:06;6.55;;;5.15;;
26588;SDS011;14235;48.532;8.722;2024-03-22T04:55:32;5.22;;;4.75;;
26588;SDS011;14235;48.532;8.722;2024-03-22T04:57:58;6.28;;;4.78;;
26588;SDS011;14235;48.532;8.722;2024-03-22T05:00:25;5.20;;;4.80;;
26588;SDS011;14235;48.532;8.722;2024-03-22T05:02:51;5.28;;;4.80;;
26588;SDS011;14235;48.532;8.722;2024-03-22T05:05:18;7.22;;;4.57;;
26588;SDS011;14235;48.532;8.722;2024-03-22T05:07:44;5.53;;;5.03;;
26588;SDS011;14235;48.532;8.722;2024-03-22T05:10:10;6.43;;;4.97;;
26588;SDS011;14235;48.532;8.722;2024-03-22T05:12:36;6.55;;;5.43;;
26588;SDS011;14235;48.532;8.722;2024-03-22T05:15:02;5.28;;;4.88;;
26588;SDS011;14235;48.532;8.722;2024-03-22T05:17:28;4.97;;;4.50;;
26588;SDS011;14235;48.532;8.722;2024-03-22T05:19:56;5.97;;;5.38;;
26588;SDS011;14235;48.532;8.722;2024-03-22T05:22:22;5.03;;;4.53;;
26588;SDS011;14235;48.532;8.722;2024-03-22T05:24:48;6.65;;;5.10;;
26588;SDS011;14235;48.532;8.722;2024-03-22T05:27:14;5.40;;;4.78;;
26588;SDS011;14235;48.532;8.722;2024-03-22T05:29:40;5.07;;;4.68;;
26588;SDS011;14235;48.532;8.722;2024-03-22T05:32:06;6.32;;;5.72;;
26588;SDS011;14235;48.532;8.722;2024-03-22T05:34:32;5.68;;;5.18;;
26588;SDS011;14235;48.532;8.722;2024-03-22T05:36:58;5.75;;;5.15;;
26588;SDS011;14235;48.532;8.722;2024-03-22T05:39:24;5.00;;;4.60;;
26588;SDS011;14235;48.532;8.722;2024-03-22T05:41:50;6.88;;;4.57;;
26588;SDS011;14235;48.532;8.722;2024-03-22T05:44:18;5.30;;;4.80;;
26588;SDS011;14235;48.532;8.722;2024-03-22T05:46:44;5.18;;;4.78;;
26588;SDS011;14235;48.532;8.722;2024-03-22T05:49:09;5.15;;;4.53;;
26588;SDS011;14235;48.532;8.722;2024-03-22T05:51:35;5.28;;;4.53;;
26588;SDS011;14235;48.532;8.722;2024-03-22T05:54:01;6.22;;;4.72;;
26588;SDS011;14235;48.532;8.722;2024-03-22T05:56:27;5.18;;;4.68;;
26588;SDS011;14235;48.532;8.722;2024-03-22T05:58:53;5.05;;;4.43;;
26588;SDS011;14235;48.532;8.722;2024-03-22T06:01:19;4.88;;;4.47;;
26588;SDS011;14235;48.532;8.722;2024-03-22T06:03:45;5.35;;;4.85;;
26588;SDS011;14235;48.532;8.722;2024-03-22T06:06:11;5.72;;;4.85;;
26588;SDS011;14235;48.532;8.722;2024-03-22T06:08:37;6.78;;;4.85;;
26588;SDS011;14235;48.532;8.722;2024-03-22T06:11:08;5.22;;;4.80;;
26588;SDS011;14235;48.532;8.722;2024-03-22T06:13:34;5.10;;;4.70;;
26588;SDS011;14235;48.532;8.722;2024-03-22T06:16:01;8.10;;;5.45;;
26588;SDS011;14235;48.532;8.722;2024-03-22T06:18:28;6.18;;;4.90;;
26588;SDS011;14235;48.532;8.722;2024-03-22T06:20:54;8.60;;;4.93;;
26588;SDS011;14235;48.532;8.722;2024-03-22T06:23:23;5.90;;;5.40;;
26588;SDS011;14235;48.532;8.722;2024-03-22T06:25:52;5.75;;;5.25;;
26588;SDS011;14235;48.532;8.722;2024-03-22T06:28:18;8.18;;;6.18;;
26588;SDS011;14235;48.532;8.722;2024-03-22T06:30:44;6.50;;;5.70;;
26588;SDS011;14235;48.532;8.722;2024-03-22T06:33:11;5.68;;;4.90;;
26588;SDS011;14235;48.532;8.722;2024-03-22T06:35:37;5.88;;;5.25;;
26588;SDS011;14235;48.532;8.722;2024-03-22T06:38:03;8.20;;;5.75;;
26588;SDS011;14235;48.532;8.722;2024-03-22T06:40:29;5.63;;;5.10;;
26588;SDS011;14235;48.532;8.722;2024-03-22T06:42:55;6.97;;;4.95;;
26588;SDS011;14235;48.532;8.722;2024-03-22T06:45:21;5.88;;;5.38;;
26588;SDS011;14235;48.532;8.722;2024-03-22T06:47:47;5.90;;;4.97;;
26588;SDS011;14235;48.532;8.722;2024-03-22T06:50:13;5.78;;;5.18;;
26588;SDS011;14235;48.532;8.722;2024-03-22T06:52:39;6.07;;;5.47;;
26588;SDS011;14235;48.532;8.722;2024-03-22T06:55:05;6.97;;;5.95;;
26588;SDS011;14235;48.532;8.722;2024-03-22T06:57:31;10.57;;;6.22;;
26588;SDS011;14235;48.532;8.722;2024-03-22T06:59:59;7.68;;;5.57;;
26588;SDS011;14235;48.532;8.722;2024-03-22T07:02:25;5.28;;;4.80;;
26588;SDS011;14235;48.532;8.722;2024-03-22T07:04:51;6.07;;;5.38;;
26588;SDS011;14235;48.532;8.722;2024-03-22T07:07:17;8.25;;;5.75;;
26588;SDS011;14235;48.532;8.722;2024-03-22T07:09:44;5.47;;;4.93;;
26588;SDS011;14235;48.532;8.722;2024-03-22T07:12:11;7.07;;;5.30;;
26588;SDS011;14235;48.532;8.722;2024-03-22T07:14:37;4.93;;;4.32;;
26588;SDS011;14235;48.532;8.722;2024-03-22T07:17:03;7.43;;;4.80;;
26588;SDS011;14235;48.532;8.722;2024-03-22T07:19:30;5.22;;;4.53;;
26588;SDS011;14235;48.532;8.722;2024-03-22T07:21:56;4.88;;;4.47;;
26588;SDS011;14235;48.532;8.722;2024-03-22T07:24:24;5.45;;;4.60;;
26588;SDS011;14235;48.532;8.722;2024-03-22T07:26:50;5.85;;;4.97;;
26588;SDS011;14235;48.532;8.722;2024-03-22T07:29:16;7.07;;;6.47;;
26588;SDS011;14235;48.532;8.722;2024-03-22T07:31:42;8.57;;;7.88;;
26588;SDS011;14235;48.532;8.722;2024-03-22T07:34:08;8.57;;;7.75;;
26588;SDS011;14235;48.532;8.722;2024-03-22T07:36:38;6.35;;;5.75;;
26588;SDS011;14235;48.532;8.722;2024-03-22T07:39:04;6.90;;;5.57;;
26588;SDS011;14235;48.532;8.722;2024-03-22T07:41:33;5.95;;;5.30;;
26588;SDS011;14235;48.532;8.722;2024-03-22T07:43:59;5.55;;;4.45;;
26588;SDS011;14235;48.532;8.722;2024-03-22T07:46:26;6.05;;;4.63;;
26588;SDS011;14235;48.532;8.722;2024-03-22T07:51:20;5.55;;;5.05;;
26588;SDS011;14235;48.532;8.722;2024-03-22T07:53:46;5.65;;;5.15;;
26588;SDS011;14235;48.532;8.722;2024-03-22T07:56:12;5.75;;;5.25;;
26588;SDS011;14235;48.532;8.722;2024-03-22T07:58:38;6.15;;;5.55;;
26588;SDS011;14235;48.532;8.722;2024-03-22T08:01:05;6.50;;;5.75;;
26588;SDS011;14235;48.532;8.722;2024-03-22T08:03:31;5.95;;;5.32;;
26588;SDS011;14235;48.532;8.722;2024-03-22T08:05:57;5.63;;;5.07;;
26588;SDS011;14235;48.532;8.722;2024-03-22T08:08:23;7.35;;;5.22;;
26588;SDS011;14235;48.532;8.722;2024-03-22T08:10:49;7.30;;;5.63;;
26588;SDS011;14235;48.532;8.722;2024-03-22T08:13:15;6.47;;;5.28;;
26588;SDS011;14235;48.532;8.722;2024-03-22T08:15:40;6.28;;;4.78;;
26588;SDS011;14235;48.532;8.722;2024-03-22T08:18:08;5.32;;;4.85;;
26588;SDS011;14235;48.532;8.722;2024-03-22T08:20:34;5.65;;;4.65;;
26588;SDS011;14235;48.532;8.722;2024-03-22T08:23:02;6.32;;;5.28;;
26588;SDS011;14235;48.532;8.722;2024-03-22T08:25:28;7.32;;;5.00;;
26588;SDS011;14235;48.532;8.722;2024-03-22T08:27:55;5.40;;;4.88;;
26588;SDS011;14235;48.532;8.722;2024-03-22T08:30:21;5.93;;;5.20;;
26588;SDS011;14235;48.532;8.722;2024-03-22T08:32:47;5.63;;;5.13;;
26588;SDS011;14235;48.532;8.722;2024-03-22T08:35:13;6.38;;;5.78;;
26588;SDS011;14235;48.532;8.722;2024-03-22T08:37:39;8.15;;;6.60;;
26588;SDS011;14235;48.532;8.722;2024-03-22T08:40:05;10.82;;;6.53;;
26588;SDS011;14235;48.532;8.722;2024-03-22T08:42:32;9.48;;;6.63;;
26588;SDS011;14235;48.532;8.722;2024-03-22T08:44:58;8.77;;;6.75;;
26588;SDS011;14235;48.532;8.722;2024-03-22T08:47:25;8.45;;;7.43;;
26588;SDS011;14235;48.532;8.722;2024-03-22T08:49:51;8.88;;;7.40;;
26588;SDS011;14235;48.532;8.722;2024-03-22T08:52:17;8.98;;;7.00;;
26588;SDS011;14235;48.532;8.722;2024-03-22T08:54:43;12.32;;;8.05;;
26588;SDS011;14235;48.532;8.722;2024-03-22T08:57:09;12.00;;;8.15;;
26588;SDS011;14235;48.532;8.722;2024-03-22T08:59:35;11.65;;;7.68;;
26588;SDS011;14235;48.532;8.722;2024-03-22T09:02:03;9.27;;;7.38;;
26588;SDS011;14235;48.532;8.722;2024-03-22T09:04:29;6.97;;;6.13;;
26588;SDS011;14235;48.532;8.722;2024-03-22T09:06:54;7.90;;;6.50;;
26588;SDS011;14235;48.532;8.722;2024-03-22T09:09:20;7.13;;;6.03;;
26588;SDS011;14235;48.532;8.722;2024-03-22T09:11:46;6.78;;;6.00;;
26588;SDS011;14235;48.532;8.722;2024-03-22T09:14:13;7.80;;;6.82;;
26588;SDS011;14235;48.532;8.722;2024-03-22T09:16:39;8.70;;;6.15;;
26588;SDS011;14235;48.532;8.722;2024-03-22T09:19:05;10.77;;;6.43;;
26588;SDS011;14235;48.532;8.722;2024-03-22T09:21:31;6.15;;;5.32;;
26588;SDS011;14235;48.532;8.722;2024-03-22T09:23:57;6.22;;;5.55;;
26588;SDS011;14235;48.532;8.722;2024-03-22T09:26:23;7.05;;;6.18;;
26588;SDS011;14235;48.532;8.722;2024-03-22T09:28:49;6.60;;;5.45;;
26588;SDS011;14235;48.532;8.722;2024-03-22T09:31:15;8.25;;;5.13;;
26588;SDS011;14235;48.532;8.722;2024-03-22T09:33:42;6.93;;;5.03;;
26588;SDS011;14235;48.532;8.722;2024-03-22T09:36:08;7.43;;;5.38;;
26588;SDS011;14235;48.532;8.722;2024-03-22T09:38:34;5.68;;;4.78;;
26588;SDS011;14235;48.532;8.722;2024-03-22T09:41:00;4.80;;;4.40;;
26588;SDS011;14235;48.532;8.722;2024-03-22T09:43:27;6.45;;;5.47;;
26588;SDS011;14235;48.532;8.722;2024-03-22T09:45:54;5.38;;;4.85;;
26588;SDS011;14235;48.532;8.722;2024-03-22T09:48:21;7.70;;;5.20;;
26588;SDS011;14235;48.532;8.722;2024-03-22T09:50:48;7.53;;;5.57;;
26588;SDS011;14235;48.532;8.722;2024-03-22T09:53:18;8.13;;;5.53;;
26588;SDS011;14235;48.532;8.722;2024-03-22T09:55:44;8.40;;;5.50;;
26588;SDS011;14235;48.532;8.722;2024-03-22T09:58:10;8.38;;;5.10;;
26588;SDS011;14235;48.532;8.722;2024-03-22T10:00:36;6.35;;;5.07;;
26588;SDS011;14235;48.532;8.722;2024-03-22T10:03:03;7.55;;;5.00;;
26588;SDS011;14235;48.532;8.722;2024-03-22T10:05:29;5.45;;;4.80;;
26588;SDS011;14235;48.532;8.722;2024-03-22T10:07:55;8.98;;;5.75;;
26588;SDS011;14235;48.532;8.722;2024-03-22T10:10:21;7.82;;;5.60;;
26588;SDS011;14235;48.532;8.722;2024-03-22T10:12:48;7.28;;;5.38;;
26588;SDS011;14235;48.532;8.722;2024-03-22T10:15:13;7.88;;;5.18;;
26588;SDS011;14235;48.532;8.722;2024-03-22T10:17:40;6.50;;;5.18;;
26588;SDS011;14235;48.532;8.722;2024-03-22T10:20:06;5.82;;;4.70;;
26588;SDS011;14235;48.532;8.722;2024-03-22T10:22:41;7.20;;;5.47;;
26588;SDS011;14235;48.532;8.722;2024-03-22T10:25:07;7.00;;;5.32;;
26588;SDS011;14235;48.532;8.722;2024-03-22T10:27:33;8.00;;;5.20;;
26588;SDS011;14235;48.532;8.722;2024-03-22T10:29:59;6.50;;;4.63;;
26588;SDS011;14235;48.532;8.722;2024-03-22T10:32:25;5.70;;;4.78;;
26588;SDS011;14235;48.532;8.722;2024-03-22T10:34:51;4.93;;;4.25;;
26588;SDS011;14235;48.532;8.722;2024-03-22T10:37:17;5.82;;;4.45;;
26588;SDS011;14235;48.532;8.722;2024-03-22T10:39:43;6.75;;;4.53;;
26588;SDS011;14235;48.532;8.722;2024-03-22T10:42:10;4.78;;;4.03;;
26588;SDS011;14235;48.532;8.722;2024-03-22T10:44:37;4.68;;;4.10;;
26588;SDS011;14235;48.532;8.722;2024-03-22T10:47:03;4.13;;;3.65;;
26588;SDS011;14235;48.532;8.722;2024-03-22T10:49:30;5.15;;;4.10;;
26588;SDS011;14235;48.532;8.722;2024-03-22T10:51:58;7.28;;;3.80;;
26588;SDS011;14235;48.532;8.722;2024-03-22T10:54:27;4.80;;;3.70;;
26588;SDS011;14235;48.532;8.722;2024-03-22T10:56:54;3.67;;;3.35;;
26588;SDS011;14235;48.532;8.722;2024-03-22T10:59:23;4.72;;;3.80;;
26588;SDS011;14235;48.532;8.722;2024-03-22T11:01:50;4.13;;;3.75;;
26588;SDS011;14235;48.532;8.722;2024-03-22T11:04:21;4.18;;;3.15;;
26588;SDS011;14235;48.532;8.722;2024-03-22T11:06:50;3.72;;;3.30;;
26588;SDS011;14235;48.532;8.722;2024-03-22T11:09:23;3.28;;;2.97;;
26588;SDS011;14235;48.532;8.722;2024-03-22T11:11:51;4.47;;;3.15;;
26588;SDS011;14235;48.532;8.722;2024-03-22T11:14:17;3.55;;;3.13;;
26588;SDS011;14235;48.532;8.722;2024-03-22T11:16:43;4.00;;;3.60;;
26588;SDS011;14235;48.532;8.722;2024-03-22T11:19:10;3.95;;;3.47;;
26588;SDS011;14235;48.532;8.722;2024-03-22T11:21:36;6.85;;;3.92;;
26588;SDS011;14235;48.532;8.722;2024-03-22T11:24:03;5.03;;;3.60;;
26588;SDS011;14235;48.532;8.722;2024-03-22T11:26:29;3.38;;;3.08;;
26588;SDS011;14235;48.532;8.722;2024-03-22T11:28:55;4.68;;;3.35;;
26588;SDS011;14235;48.532;8.722;2024-03-22T11:31:21;3.45;;;3.15;;
26588;SDS011;14235;48.532;8.722;2024-03-22T11:33:52;4.68;;;2.40;;
26588;SDS011;14235;48.532;8.722;2024-03-22T11:36:18;2.65;;;1.65;;
26588;SDS011;14235;48.532;8.722;2024-03-22T11:38:44;3.80;;;2.33;;
26588;SDS011;14235;48.532;8.722;2024-03-22T11:41:10;2.90;;;1.80;;
26588;SDS011;14235;48.532;8.722;2024-03-22T11:43:36;2.40;;;2.20;;
26588;SDS011;14235;48.532;8.722;2024-03-22T11:46:03;2.58;;;1.70;;
26588;SDS011;14235;48.532;8.722;2024-03-22T11:48:29;2.40;;;2.20;;
26588;SDS011;14235;48.532;8.722;2024-03-22T11:50:55;1.98;;;1.88;;
26588;SDS011;14235;48.532;8.722;2024-03-22T11:53:23;2.00;;;1.80;;
26588;SDS011;14235;48.532;8.722;2024-03-22T11:55:49;2.60;;;1.83;;
26588;SDS011;14235;48.532;8.722;2024-03-22T11:58:17;1.73;;;1.63;;
26588;SDS011;14235;48.532;8.722;2024-03-22T12:00:43;1.60;;;1.50;;
26588;SDS011;14235;48.532;8.722;2024-03-22T12:03:09;1.83;;;1.50;;
26588;SDS011;14235;48.532;8.722;2024-03-22T12:05:35;2.45;;;1.80;;
26588;SDS011;14235;48.532;8.722;2024-03-22T12:08:01;2.10;;;1.65;;
26588;SDS011;14235;48.532;8.722;2024-03-22T12:10:27;1.75;;;1.65;;
26588;SDS011;14235;48.532;8.722;2024-03-22T12:12:53;2.05;;;1.58;;
26588;SDS011;14235;48.532;8.722;2024-03-22T12:15:20;1.60;;;1.50;;
26588;SDS011;14235;48.532;8.722;2024-03-22T12:17:46;1.50;;;1.40;;
26588;SDS011;14235;48.532;8.722;2024-03-22T12:20:12;3.85;;;1.75;;
26588;SDS011;14235;48.532;8.722;2024-03-22T12:22:39;1.33;;;1.23;;
26588;SDS011;14235;48.532;8.722;2024-03-22T12:25:06;1.50;;;1.40;;
26588;SDS011;14235;48.532;8.722;2024-03-22T12:27:32;1.70;;;1.60;;
26588;SDS011;14235;48.532;8.722;2024-03-22T12:29:58;1.60;;;1.50;;
26588;SDS011;14235;48.532;8.722;2024-03-22T12:32:24;2.90;;;1.52;;
26588;SDS011;14235;48.532;8.722;2024-03-22T12:34:50;1.55;;;1.45;;
26588;SDS011;14235;48.532;8.722;2024-03-22T12:37:16;1.48;;;1.33;;
26588;SDS011;14235;48.532;8.722;2024-03-22T12:39:42;1.60;;;1.38;;
26588;SDS011;14235;48.532;8.722;2024-03-22T12:42:08;1.52;;;1.33;;
26588;SDS011;14235;48.532;8.722;2024-03-22T12:44:34;1.38;;;1.27;;
26588;SDS011;14235;48.532;8.722;2024-03-22T12:47:00;2.25;;;1.20;;
26588;SDS011;14235;48.532;8.722;2024-03-22T12:49:26;2.65;;;1.30;;
26588;SDS011;14235;48.532;8.722;2024-03-22T12:51:52;1.45;;;1.20;;
26588;SDS011;14235;48.532;8.722;2024-03-22T12:54:18;1.40;;;1.30;;
26588;SDS011;14235;48.532;8.722;2024-03-22T12:56:45;1.17;;;1.17;;
26588;SDS011;14235;48.532;8.722;2024-03-22T12:59:11;2.60;;;1.55;;
26588;SDS011;14235;48.532;8.722;2024-03-22T13:01:37;2.08;;;1.88;;
26588;SDS011;14235;48.532;8.722;2024-03-22T13:04:03;1.58;;;1.45;;
26588;SDS011;14235;48.532;8.722;2024-03-22T13:06:29;1.65;;;1.50;;
26588;SDS011;14235;48.532;8.722;2024-03-22T13:08:55;2.90;;;1.45;;
26588;SDS011;14235;48.532;8.722;2024-03-22T13:11:22;2.22;;;1.65;;
26588;SDS011;14235;48.532;8.722;2024-03-22T13:13:48;1.30;;;1.15;;
26588;SDS011;14235;48.532;8.722;2024-03-22T13:16:14;2.05;;;1.52;;
26588;SDS011;14235;48.532;8.722;2024-03-22T13:18:40;2.03;;;1.90;;
26588;SDS011;14235;48.532;8.722;2024-03-22T13:21:06;2.10;;;1.90;;
26588;SDS011;14235;48.532;8.722;2024-03-22T13:23:32;2.35;;;1.90;;
26588;SDS011;14235;48.532;8.722;2024-03-22T13:26:02;1.63;;;1.52;;
26588;SDS011;14235;48.532;8.722;2024-03-22T13:28:28;1.80;;;1.70;;
26588;SDS011;14235;48.532;8.722;2024-03-22T13:31:03;2.55;;;1.70;;
26588;SDS011;14235;48.532;8.722;2024-03-22T13:33:35;1.42;;;1.33;;
26588;SDS011;14235;48.532;8.722;2024-03-22T13:36:01;2.45;;;1.70;;
26588;SDS011;14235;48.532;8.722;2024-03-22T13:38:28;1.58;;;1.48;;
26588;SDS011;14235;48.532;8.722;2024-03-22T13:40:54;1.55;;;1.45;;
26588;SDS011;14235;48.532;8.722;2024-03-22T13:43:20;1.13;;;1.13;;
26588;SDS011;14235;48.532;8.722;2024-03-22T13:45:47;1.60;;;1.50;;
26588;SDS011;14235;48.532;8.722;2024-03-22T13:48:14;2.17;;;1.40;;
26588;SDS011;14235;48.532;8.722;2024-03-22T13:50:40;1.65;;;1.55;;
26588;SDS011;14235;48.532;8.722;2024-03-22T13:53:06;2.45;;;1.50;;
26588;SDS011;14235;48.532;8.722;2024-03-22T13:55:33;2.88;;;1.60;;
26588;SDS011;14235;48.532;8.722;2024-03-22T13:57:59;2.03;;;1.92;;
26588;SDS011;14235;48.532;8.722;2024-03-22T14:00:26;2.38;;;2.10;;
26588;SDS011;14235;48.532;8.722;2024-03-22T14:02:52;1.92;;;1.83;;
26588;SDS011;14235;48.532;8.722;2024-03-22T14:05:20;2.42;;;1.95;;
26588;SDS011;14235;48.532;8.722;2024-03-22T14:07:46;2.20;;;1.55;;
26588;SDS011;14235;48.532;8.722;2024-03-22T14:10:12;1.50;;;1.40;;
26588;SDS011;14235;48.532;8.722;2024-03-22T14:12:41;3.40;;;1.65;;
26588;SDS011;14235;48.532;8.722;2024-03-22T14:15:07;2.92;;;1.67;;
26588;SDS011;14235;48.532;8.722;2024-03-22T14:17:33;1.70;;;1.60;;
26588;SDS011;14235;48.532;8.722;2024-03-22T14:19:59;1.70;;;1.60;;
26588;SDS011;14235;48.532;8.722;2024-03-22T14:22:25;3.00;;;1.60;;
26588;SDS011;14235;48.532;8.722;2024-03-22T14:24:50;1.70;;;1.55;;
26588;SDS011;14235;48.532;8.722;2024-03-22T14:27:17;3.28;;;1.30;;
26588;SDS011;14235;48.532;8.722;2024-03-22T14:29:45;2.65;;;1.40;;
26588;SDS011;14235;48.532;8.722;2024-03-22T14:32:11;1.95;;;1.77;;
26588;SDS011;14235;48.532;8.722;2024-03-22T14:34:37;2.33;;;1.40;;
26588;SDS011;14235;48.532;8.722;2024-03-22T14:37:03;2.35;;;1.40;;
26588;SDS011;14235;48.532;8.722;2024-03-22T14:39:29;1.20;;;1.10;;
26588;SDS011;14235;48.532;8.722;2024-03-22T14:41:55;2.30;;;1.42;;
26588;SDS011;14235;48.532;8.722;2024-03-22T14:44:22;2.38;;;1.70;;